sensor_id;sensor_type;location;lat;lon;timestamp;P1;durP1;ratioP1;P2;durP2;ratioP2
56653;SDS011;45096;52.302;4.634;2023-02-20T00:02:03;6.78;;;5.28;;
56653;SDS011;45096;52.302;4.634;2023-02-20T00:04:30;11.18;;;6.07;;
56653;SDS011;45096;52.302;4.634;2023-02-20T00:06:55;7.95;;;5.20;;
56653;SDS011;45096;52.302;4.634;2023-02-20T00:09:20;9.80;;;5.65;;
56653;SDS011;45096;52.302;4.634;2023-02-20T00:11:46;9.13;;;5.93;;
56653;SDS011;45096;52.302;4.634;2023-02-20T00:14:11;8.00;;;5.80;;
56653;SDS011;45096;52.302;4.634;2023-02-20T00:16:37;7.95;;;5.47;;
56653;SDS011;45096;52.302;4.634;2023-02-20T00:19:02;13.13;;;6.32;;
56653;SDS011;45096;52.302;4.634;2023-02-20T00:21:29;10.73;;;6.53;;
56653;SDS011;45096;52.302;4.634;2023-02-20T00:23:55;10.18;;;6.28;;
56653;SDS011;45096;52.302;4.634;2023-02-20T00:26:20;9.98;;;6.60;;
56653;SDS011;45096;52.302;4.634;2023-02-20T00:28:46;10.57;;;5.88;;
56653;SDS011;45096;52.302;4.634;2023-02-20T00:31:12;9.90;;;5.60;;
56653;SDS011;45096;52.302;4.634;2023-02-20T00:33:38;8.82;;;5.30;;
56653;SDS011;45096;52.302;4.634;2023-02-20T00:36:04;9.98;;;6.03;;
56653;SDS011;45096;52.302;4.634;2023-02-20T00:38:31;10.15;;;6.15;;
56653;SDS011;45096;52.302;4.634;2023-02-20T00:40:57;11.13;;;6.47;;
56653;SDS011;45096;52.302;4.634;2023-02-20T00:43:22;13.05;;;6.43;;
56653;SDS011;45096;52.302;4.634;2023-02-20T00:45:48;10.65;;;5.43;;
56653;SDS011;45096;52.302;4.634;2023-02-20T00:48:13;9.93;;;5.70;;
56653;SDS011;45096;52.302;4.634;2023-02-20T00:50:38;14.52;;;6.15;;
56653;SDS011;45096;52.302;4.634;2023-02-20T00:53:04;8.07;;;5.68;;
56653;SDS011;45096;52.302;4.634;2023-02-20T00:55:31;12.18;;;6.70;;
56653;SDS011;45096;52.302;4.634;2023-02-20T00:57:56;13.30;;;6.72;;
56653;SDS011;45096;52.302;4.634;2023-02-20T01:00:22;13.65;;;5.65;;
56653;SDS011;45096;52.302;4.634;2023-02-20T01:02:49;11.50;;;5.75;;
56653;SDS011;45096;52.302;4.634;2023-02-20T01:05:14;12.48;;;5.53;;
56653;SDS011;45096;52.302;4.634;2023-02-20T01:07:40;13.30;;;5.95;;
56653;SDS011;45096;52.302;4.634;2023-02-20T01:10:06;9.02;;;5.32;;
56653;SDS011;45096;52.302;4.634;2023-02-20T01:12:33;13.60;;;5.75;;
56653;SDS011;45096;52.302;4.634;2023-02-20T01:14:58;11.10;;;5.45;;
56653;SDS011;45096;52.302;4.634;2023-02-20T01:17:24;14.20;;;4.85;;
56653;SDS011;45096;52.302;4.634;2023-02-20T01:19:49;13.63;;;5.43;;
56653;SDS011;45096;52.302;4.634;2023-02-20T01:22:14;12.00;;;5.25;;
56653;SDS011;45096;52.302;4.634;2023-02-20T01:24:40;12.93;;;5.72;;
56653;SDS011;45096;52.302;4.634;2023-02-20T01:27:05;10.23;;;5.15;;
56653;SDS011;45096;52.302;4.634;2023-02-20T01:29:32;13.10;;;5.07;;
56653;SDS011;45096;52.302;4.634;2023-02-20T01:31:57;12.02;;;5.22;;
56653;SDS011;45096;52.302;4.634;2023-02-20T01:34:23;13.45;;;5.35;;
56653;SDS011;45096;52.302;4.634;2023-02-20T01:36:48;10.18;;;4.38;;
56653;SDS011;45096;52.302;4.634;2023-02-20T01:39:15;10.63;;;5.63;;
56653;SDS011;45096;52.302;4.634;2023-02-20T01:41:42;15.45;;;5.40;;
56653;SDS011;45096;52.302;4.634;2023-02-20T01:44:10;12.35;;;5.88;;
56653;SDS011;45096;52.302;4.634;2023-02-20T01:46:53;16.63;;;5.00;;
56653;SDS011;45096;52.302;4.634;2023-02-20T01:49:21;8.98;;;4.20;;
56653;SDS011;45096;52.302;4.634;2023-02-20T01:51:50;14.40;;;4.18;;
56653;SDS011;45096;52.302;4.634;2023-02-20T01:54:20;20.02;;;4.93;;
56653;SDS011;45096;52.302;4.634;2023-02-20T01:56:46;11.15;;;4.45;;
56653;SDS011;45096;52.302;4.634;2023-02-20T01:59:13;10.88;;;4.60;;
56653;SDS011;45096;52.302;4.634;2023-02-20T02:01:38;14.38;;;5.13;;
56653;SDS011;45096;52.302;4.634;2023-02-20T02:04:06;17.33;;;4.75;;
56653;SDS011;45096;52.302;4.634;2023-02-20T02:06:32;16.40;;;4.90;;
56653;SDS011;45096;52.302;4.634;2023-02-20T02:08:59;15.52;;;4.63;;
56653;SDS011;45096;52.302;4.634;2023-02-20T02:11:27;17.60;;;4.78;;
56653;SDS011;45096;52.302;4.634;2023-02-20T02:13:53;11.38;;;4.53;;
56653;SDS011;45096;52.302;4.634;2023-02-20T02:16:20;14.40;;;3.92;;
56653;SDS011;45096;52.302;4.634;2023-02-20T02:18:50;12.55;;;4.63;;
56653;SDS011;45096;52.302;4.634;2023-02-20T02:24:30;16.35;;;5.00;;
56653;SDS011;45096;52.302;4.634;2023-02-20T02:27:08;12.00;;;4.47;;
56653;SDS011;45096;52.302;4.634;2023-02-20T02:29:49;14.82;;;4.82;;
56653;SDS011;45096;52.302;4.634;2023-02-20T02:32:42;13.40;;;4.80;;
56653;SDS011;45096;52.302;4.634;2023-02-20T02:35:28;15.05;;;5.07;;
56653;SDS011;45096;52.302;4.634;2023-02-20T02:38:06;14.60;;;4.88;;
56653;SDS011;45096;52.302;4.634;2023-02-20T02:40:38;16.98;;;6.05;;
56653;SDS011;45096;52.302;4.634;2023-02-20T02:43:07;14.05;;;4.10;;
56653;SDS011;45096;52.302;4.634;2023-02-20T02:45:37;17.30;;;4.78;;
56653;SDS011;45096;52.302;4.634;2023-02-20T02:48:05;13.45;;;4.43;;
56653;SDS011;45096;52.302;4.634;2023-02-20T02:50:36;15.52;;;5.30;;
56653;SDS011;45096;52.302;4.634;2023-02-20T02:53:02;18.38;;;5.18;;
56653;SDS011;45096;52.302;4.634;2023-02-20T02:55:30;16.17;;;4.88;;
56653;SDS011;45096;52.302;4.634;2023-02-20T02:57:56;26.55;;;6.05;;
56653;SDS011;45096;52.302;4.634;2023-02-20T03:00:22;16.83;;;5.15;;
56653;SDS011;45096;52.302;4.634;2023-02-20T03:02:52;14.63;;;5.35;;
56653;SDS011;45096;52.302;4.634;2023-02-20T03:05:22;21.05;;;5.55;;
56653;SDS011;45096;52.302;4.634;2023-02-20T03:07:52;16.05;;;5.10;;
56653;SDS011;45096;52.302;4.634;2023-02-20T03:10:20;16.50;;;6.43;;
56653;SDS011;45096;52.302;4.634;2023-02-20T03:12:48;21.38;;;5.55;;
56653;SDS011;45096;52.302;4.634;2023-02-20T03:15:16;16.23;;;5.63;;
56653;SDS011;45096;52.302;4.634;2023-02-20T03:17:46;13.57;;;4.88;;
56653;SDS011;45096;52.302;4.634;2023-02-20T03:20:14;16.63;;;5.97;;
56653;SDS011;45096;52.302;4.634;2023-02-20T03:22:42;16.45;;;5.13;;
56653;SDS011;45096;52.302;4.634;2023-02-20T03:25:10;25.88;;;5.45;;
56653;SDS011;45096;52.302;4.634;2023-02-20T03:27:39;20.35;;;5.93;;
56653;SDS011;45096;52.302;4.634;2023-02-20T03:30:09;19.30;;;5.57;;
56653;SDS011;45096;52.302;4.634;2023-02-20T03:32:38;19.98;;;5.53;;
56653;SDS011;45096;52.302;4.634;2023-02-20T03:35:04;13.55;;;6.07;;
56653;SDS011;45096;52.302;4.634;2023-02-20T03:37:30;15.35;;;5.40;;
56653;SDS011;45096;52.302;4.634;2023-02-20T03:39:58;16.20;;;6.18;;
56653;SDS011;45096;52.302;4.634;2023-02-20T03:42:25;16.90;;;5.60;;
56653;SDS011;45096;52.302;4.634;2023-02-20T03:44:53;13.63;;;5.35;;
56653;SDS011;45096;52.302;4.634;2023-02-20T03:47:22;17.45;;;6.07;;
56653;SDS011;45096;52.302;4.634;2023-02-20T03:49:49;22.40;;;5.45;;
56653;SDS011;45096;52.302;4.634;2023-02-20T03:52:16;18.15;;;6.22;;
56653;SDS011;45096;52.302;4.634;2023-02-20T03:54:42;18.67;;;7.38;;
56653;SDS011;45096;52.302;4.634;2023-02-20T03:57:08;16.90;;;5.72;;
56653;SDS011;45096;52.302;4.634;2023-02-20T03:59:37;18.73;;;6.00;;
56653;SDS011;45096;52.302;4.634;2023-02-20T04:02:06;16.55;;;5.85;;
56653;SDS011;45096;52.302;4.634;2023-02-20T04:04:37;22.52;;;5.85;;
56653;SDS011;45096;52.302;4.634;2023-02-20T04:07:06;18.70;;;6.03;;
56653;SDS011;45096;52.302;4.634;2023-02-20T04:09:34;21.70;;;6.30;;
56653;SDS011;45096;52.302;4.634;2023-02-20T04:12:04;15.73;;;5.82;;
56653;SDS011;45096;52.302;4.634;2023-02-20T04:14:32;16.50;;;5.88;;
56653;SDS011;45096;52.302;4.634;2023-02-20T04:16:59;21.58;;;7.35;;
56653;SDS011;45096;52.302;4.634;2023-02-20T04:19:27;21.67;;;6.80;;
56653;SDS011;45096;52.302;4.634;2023-02-20T04:21:54;18.90;;;7.32;;
56653;SDS011;45096;52.302;4.634;2023-02-20T04:24:22;22.23;;;6.57;;
56653;SDS011;45096;52.302;4.634;2023-02-20T04:26:50;22.08;;;6.47;;
56653;SDS011;45096;52.302;4.634;2023-02-20T04:29:15;12.10;;;6.57;;
56653;SDS011;45096;52.302;4.634;2023-02-20T04:31:41;19.15;;;7.93;;
56653;SDS011;45096;52.302;4.634;2023-02-20T04:34:06;13.63;;;6.60;;
56653;SDS011;45096;52.302;4.634;2023-02-20T04:36:32;24.73;;;7.35;;
56653;SDS011;45096;52.302;4.634;2023-02-20T04:38:58;17.30;;;7.57;;
56653;SDS011;45096;52.302;4.634;2023-02-20T04:41:24;23.70;;;7.70;;
56653;SDS011;45096;52.302;4.634;2023-02-20T04:43:49;15.23;;;6.88;;
56653;SDS011;45096;52.302;4.634;2023-02-20T04:46:15;16.23;;;6.15;;
56653;SDS011;45096;52.302;4.634;2023-02-20T04:48:40;18.55;;;7.55;;
56653;SDS011;45096;52.302;4.634;2023-02-20T04:51:06;20.58;;;8.05;;
56653;SDS011;45096;52.302;4.634;2023-02-20T04:53:31;24.70;;;8.60;;
56653;SDS011;45096;52.302;4.634;2023-02-20T04:55:58;20.52;;;8.30;;
56653;SDS011;45096;52.302;4.634;2023-02-20T04:58:23;14.80;;;7.85;;
56653;SDS011;45096;52.302;4.634;2023-02-20T05:00:49;21.88;;;7.55;;
56653;SDS011;45096;52.302;4.634;2023-02-20T05:03:14;18.80;;;7.18;;
56653;SDS011;45096;52.302;4.634;2023-02-20T05:05:40;23.90;;;8.07;;
56653;SDS011;45096;52.302;4.634;2023-02-20T05:08:05;13.75;;;7.28;;
56653;SDS011;45096;52.302;4.634;2023-02-20T05:10:32;14.07;;;7.43;;
56653;SDS011;45096;52.302;4.634;2023-02-20T05:12:59;17.65;;;7.60;;
56653;SDS011;45096;52.302;4.634;2023-02-20T05:15:25;14.85;;;6.88;;
56653;SDS011;45096;52.302;4.634;2023-02-20T05:17:52;20.15;;;8.50;;
56653;SDS011;45096;52.302;4.634;2023-02-20T05:20:17;19.50;;;8.55;;
56653;SDS011;45096;52.302;4.634;2023-02-20T05:22:43;22.63;;;8.85;;
56653;SDS011;45096;52.302;4.634;2023-02-20T05:25:09;15.88;;;7.80;;
56653;SDS011;45096;52.302;4.634;2023-02-20T05:27:34;21.65;;;8.55;;
56653;SDS011;45096;52.302;4.634;2023-02-20T05:30:01;18.25;;;7.55;;
56653;SDS011;45096;52.302;4.634;2023-02-20T05:32:27;14.68;;;7.53;;
56653;SDS011;45096;52.302;4.634;2023-02-20T05:34:54;15.15;;;6.78;;
56653;SDS011;45096;52.302;4.634;2023-02-20T05:37:20;11.45;;;6.38;;
56653;SDS011;45096;52.302;4.634;2023-02-20T05:39:47;16.33;;;7.68;;
56653;SDS011;45096;52.302;4.634;2023-02-20T05:42:13;21.48;;;7.70;;
56653;SDS011;45096;52.302;4.634;2023-02-20T05:44:39;19.05;;;7.00;;
56653;SDS011;45096;52.302;4.634;2023-02-20T05:47:06;18.25;;;8.38;;
56653;SDS011;45096;52.302;4.634;2023-02-20T05:49:31;21.88;;;7.60;;
56653;SDS011;45096;52.302;4.634;2023-02-20T05:51:57;19.23;;;7.25;;
56653;SDS011;45096;52.302;4.634;2023-02-20T05:54:22;23.67;;;7.75;;
56653;SDS011;45096;52.302;4.634;2023-02-20T05:56:48;18.63;;;6.38;;
56653;SDS011;45096;52.302;4.634;2023-02-20T05:59:16;16.95;;;7.03;;
56653;SDS011;45096;52.302;4.634;2023-02-20T06:01:42;18.30;;;6.20;;
56653;SDS011;45096;52.302;4.634;2023-02-20T06:04:09;13.73;;;6.78;;
56653;SDS011;45096;52.302;4.634;2023-02-20T06:06:35;15.30;;;6.05;;
56653;SDS011;45096;52.302;4.634;2023-02-20T06:09:02;18.35;;;6.40;;
56653;SDS011;45096;52.302;4.634;2023-02-20T06:11:28;16.52;;;6.43;;
56653;SDS011;45096;52.302;4.634;2023-02-20T06:13:53;14.57;;;7.40;;
56653;SDS011;45096;52.302;4.634;2023-02-20T06:16:21;15.45;;;6.95;;
56653;SDS011;45096;52.302;4.634;2023-02-20T06:18:47;21.60;;;6.80;;
56653;SDS011;45096;52.302;4.634;2023-02-20T06:21:13;15.18;;;6.00;;
56653;SDS011;45096;52.302;4.634;2023-02-20T06:23:41;19.15;;;6.82;;
56653;SDS011;45096;52.302;4.634;2023-02-20T06:26:08;12.27;;;6.30;;
56653;SDS011;45096;52.302;4.634;2023-02-20T06:28:33;19.75;;;6.00;;
56653;SDS011;45096;52.302;4.634;2023-02-20T06:30:59;19.90;;;6.88;;
56653;SDS011;45096;52.302;4.634;2023-02-20T06:33:24;13.77;;;5.75;;
56653;SDS011;45096;52.302;4.634;2023-02-20T06:35:50;23.63;;;6.25;;
56653;SDS011;45096;52.302;4.634;2023-02-20T06:38:16;16.88;;;6.18;;
56653;SDS011;45096;52.302;4.634;2023-02-20T06:40:42;17.92;;;6.95;;
56653;SDS011;45096;52.302;4.634;2023-02-20T06:43:07;17.15;;;6.28;;
56653;SDS011;45096;52.302;4.634;2023-02-20T06:45:33;16.75;;;6.10;;
56653;SDS011;45096;52.302;4.634;2023-02-20T06:47:58;16.60;;;6.22;;
56653;SDS011;45096;52.302;4.634;2023-02-20T06:50:23;21.08;;;6.97;;
56653;SDS011;45096;52.302;4.634;2023-02-20T06:52:49;13.60;;;5.53;;
56653;SDS011;45096;52.302;4.634;2023-02-20T06:55:16;13.05;;;6.32;;
56653;SDS011;45096;52.302;4.634;2023-02-20T06:57:41;17.60;;;6.13;;
56653;SDS011;45096;52.302;4.634;2023-02-20T07:00:07;13.93;;;6.35;;
56653;SDS011;45096;52.302;4.634;2023-02-20T07:02:33;16.42;;;5.85;;
56653;SDS011;45096;52.302;4.634;2023-02-20T07:04:58;11.43;;;5.75;;
56653;SDS011;45096;52.302;4.634;2023-02-20T07:07:24;13.27;;;5.20;;
56653;SDS011;45096;52.302;4.634;2023-02-20T07:09:49;13.25;;;5.97;;
56653;SDS011;45096;52.302;4.634;2023-02-20T07:12:16;24.73;;;6.63;;
56653;SDS011;45096;52.302;4.634;2023-02-20T07:14:41;13.27;;;5.93;;
56653;SDS011;45096;52.302;4.634;2023-02-20T07:17:07;14.45;;;6.22;;
56653;SDS011;45096;52.302;4.634;2023-02-20T07:19:32;17.50;;;5.88;;
56653;SDS011;45096;52.302;4.634;2023-02-20T07:21:57;9.95;;;5.75;;
56653;SDS011;45096;52.302;4.634;2023-02-20T07:24:23;15.32;;;5.63;;
56653;SDS011;45096;52.302;4.634;2023-02-20T07:26:48;12.82;;;6.07;;
56653;SDS011;45096;52.302;4.634;2023-02-20T07:29:15;16.70;;;6.40;;
56653;SDS011;45096;52.302;4.634;2023-02-20T07:31:40;18.45;;;6.82;;
56653;SDS011;45096;52.302;4.634;2023-02-20T07:34:06;22.70;;;6.75;;
56653;SDS011;45096;52.302;4.634;2023-02-20T07:36:31;17.10;;;8.55;;
56653;SDS011;45096;52.302;4.634;2023-02-20T07:38:57;16.40;;;7.28;;
56653;SDS011;45096;52.302;4.634;2023-02-20T07:41:23;16.92;;;7.07;;
56653;SDS011;45096;52.302;4.634;2023-02-20T07:43:50;20.63;;;7.50;;
56653;SDS011;45096;52.302;4.634;2023-02-20T07:46:16;16.55;;;7.95;;
56653;SDS011;45096;52.302;4.634;2023-02-20T07:48:42;14.30;;;7.32;;
56653;SDS011;45096;52.302;4.634;2023-02-20T07:51:07;19.20;;;8.00;;
56653;SDS011;45096;52.302;4.634;2023-02-20T07:53:33;17.42;;;8.55;;
56653;SDS011;45096;52.302;4.634;2023-02-20T07:55:58;21.90;;;8.48;;
56653;SDS011;45096;52.302;4.634;2023-02-20T07:58:23;19.13;;;8.00;;
56653;SDS011;45096;52.302;4.634;2023-02-20T08:00:49;16.10;;;7.30;;
56653;SDS011;45096;52.302;4.634;2023-02-20T08:03:16;16.08;;;7.70;;
56653;SDS011;45096;52.302;4.634;2023-02-20T08:05:42;19.08;;;7.72;;
56653;SDS011;45096;52.302;4.634;2023-02-20T08:08:07;16.63;;;7.13;;
56653;SDS011;45096;52.302;4.634;2023-02-20T08:10:33;17.40;;;7.78;;
56653;SDS011;45096;52.302;4.634;2023-02-20T08:12:58;22.98;;;7.68;;
56653;SDS011;45096;52.302;4.634;2023-02-20T08:15:23;22.08;;;8.60;;
56653;SDS011;45096;52.302;4.634;2023-02-20T08:17:49;18.95;;;8.70;;
56653;SDS011;45096;52.302;4.634;2023-02-20T08:20:16;15.32;;;7.47;;
56653;SDS011;45096;52.302;4.634;2023-02-20T08:22:44;17.13;;;7.82;;
56653;SDS011;45096;52.302;4.634;2023-02-20T08:25:09;16.08;;;7.35;;
56653;SDS011;45096;52.302;4.634;2023-02-20T08:27:35;23.85;;;7.85;;
56653;SDS011;45096;52.302;4.634;2023-02-20T08:30:00;21.05;;;7.43;;
56653;SDS011;45096;52.302;4.634;2023-02-20T08:32:26;18.58;;;8.10;;
56653;SDS011;45096;52.302;4.634;2023-02-20T08:34:51;14.85;;;7.07;;
56653;SDS011;45096;52.302;4.634;2023-02-20T08:37:18;15.98;;;7.20;;
56653;SDS011;45096;52.302;4.634;2023-02-20T08:39:43;16.58;;;7.57;;
56653;SDS011;45096;52.302;4.634;2023-02-20T08:42:09;20.33;;;7.50;;
56653;SDS011;45096;52.302;4.634;2023-02-20T08:44:34;16.67;;;7.57;;
56653;SDS011;45096;52.302;4.634;2023-02-20T08:47:00;15.25;;;7.35;;
56653;SDS011;45096;52.302;4.634;2023-02-20T08:49:25;15.82;;;7.18;;
56653;SDS011;45096;52.302;4.634;2023-02-20T08:51:52;17.67;;;6.45;;
56653;SDS011;45096;52.302;4.634;2023-02-20T08:54:20;17.95;;;6.78;;
56653;SDS011;45096;52.302;4.634;2023-02-20T08:56:45;23.67;;;7.13;;
56653;SDS011;45096;52.302;4.634;2023-02-20T08:59:11;16.63;;;6.72;;
56653;SDS011;45096;52.302;4.634;2023-02-20T09:01:39;14.30;;;7.00;;
56653;SDS011;45096;52.302;4.634;2023-02-20T09:04:06;23.35;;;6.85;;
56653;SDS011;45096;52.302;4.634;2023-02-20T09:06:31;13.55;;;6.50;;
56653;SDS011;45096;52.302;4.634;2023-02-20T09:08:56;20.63;;;6.95;;
56653;SDS011;45096;52.302;4.634;2023-02-20T09:11:23;13.90;;;6.18;;
56653;SDS011;45096;52.302;4.634;2023-02-20T09:13:49;15.27;;;6.68;;
56653;SDS011;45096;52.302;4.634;2023-02-20T09:16:15;16.05;;;7.35;;
56653;SDS011;45096;52.302;4.634;2023-02-20T09:18:42;14.05;;;7.10;;
56653;SDS011;45096;52.302;4.634;2023-02-20T09:21:08;11.35;;;6.05;;
56653;SDS011;45096;52.302;4.634;2023-02-20T09:23:34;19.05;;;6.70;;
56653;SDS011;45096;52.302;4.634;2023-02-20T09:25:59;15.50;;;6.75;;
56653;SDS011;45096;52.302;4.634;2023-02-20T09:28:26;18.08;;;7.45;;
56653;SDS011;45096;52.302;4.634;2023-02-20T09:30:52;18.95;;;6.45;;
56653;SDS011;45096;52.302;4.634;2023-02-20T09:33:17;16.75;;;5.93;;
56653;SDS011;45096;52.302;4.634;2023-02-20T09:35:42;22.88;;;6.65;;
56653;SDS011;45096;52.302;4.634;2023-02-20T09:38:08;16.13;;;6.32;;
56653;SDS011;45096;52.302;4.634;2023-02-20T09:40:33;14.13;;;6.15;;
56653;SDS011;45096;52.302;4.634;2023-02-20T09:43:03;18.92;;;6.40;;
56653;SDS011;45096;52.302;4.634;2023-02-20T09:45:35;16.42;;;5.50;;
56653;SDS011;45096;52.302;4.634;2023-02-20T09:48:07;16.63;;;5.70;;
56653;SDS011;45096;52.302;4.634;2023-02-20T09:50:41;13.00;;;4.80;;
56653;SDS011;45096;52.302;4.634;2023-02-20T09:53:13;10.60;;;5.30;;
56653;SDS011;45096;52.302;4.634;2023-02-20T09:55:42;12.68;;;5.47;;
56653;SDS011;45096;52.302;4.634;2023-02-20T09:58:09;11.60;;;5.20;;
56653;SDS011;45096;52.302;4.634;2023-02-20T10:00:45;15.45;;;5.07;;
56653;SDS011;45096;52.302;4.634;2023-02-20T10:03:14;12.43;;;5.13;;
56653;SDS011;45096;52.302;4.634;2023-02-20T10:05:43;14.18;;;5.85;;
56653;SDS011;45096;52.302;4.634;2023-02-20T10:08:09;9.48;;;5.22;;
56653;SDS011;45096;52.302;4.634;2023-02-20T10:10:34;12.30;;;4.88;;
56653;SDS011;45096;52.302;4.634;2023-02-20T10:13:03;12.00;;;5.18;;
56653;SDS011;45096;52.302;4.634;2023-02-20T10:15:34;12.82;;;4.88;;
56653;SDS011;45096;52.302;4.634;2023-02-20T10:18:06;10.30;;;4.93;;
56653;SDS011;45096;52.302;4.634;2023-02-20T10:20:40;10.23;;;4.63;;
56653;SDS011;45096;52.302;4.634;2023-02-20T10:23:13;11.35;;;5.38;;
56653;SDS011;45096;52.302;4.634;2023-02-20T10:25:44;12.32;;;5.68;;
56653;SDS011;45096;52.302;4.634;2023-02-20T10:28:13;16.58;;;6.00;;
56653;SDS011;45096;52.302;4.634;2023-02-20T10:30:40;12.05;;;5.53;;
56653;SDS011;45096;52.302;4.634;2023-02-20T10:33:15;11.80;;;5.38;;
56653;SDS011;45096;52.302;4.634;2023-02-20T10:35:47;12.05;;;5.55;;
56653;SDS011;45096;52.302;4.634;2023-02-20T10:38:17;11.52;;;5.95;;
56653;SDS011;45096;52.302;4.634;2023-02-20T10:40:46;13.20;;;5.63;;
56653;SDS011;45096;52.302;4.634;2023-02-20T10:43:15;13.27;;;5.70;;
56653;SDS011;45096;52.302;4.634;2023-02-20T10:45:46;12.48;;;5.75;;
56653;SDS011;45096;52.302;4.634;2023-02-20T10:48:17;9.77;;;5.90;;
56653;SDS011;45096;52.302;4.634;2023-02-20T10:50:44;18.10;;;6.65;;
56653;SDS011;45096;52.302;4.634;2023-02-20T10:53:13;15.63;;;6.35;;
56653;SDS011;45096;52.302;4.634;2023-02-20T10:55:43;12.20;;;6.10;;
56653;SDS011;45096;52.302;4.634;2023-02-20T10:58:12;9.50;;;5.95;;
56653;SDS011;45096;52.302;4.634;2023-02-20T11:00:41;18.02;;;5.75;;
56653;SDS011;45096;52.302;4.634;2023-02-20T11:03:10;13.15;;;6.15;;
56653;SDS011;45096;52.302;4.634;2023-02-20T11:05:41;16.38;;;6.60;;
56653;SDS011;45096;52.302;4.634;2023-02-20T11:08:10;13.05;;;5.68;;
56653;SDS011;45096;52.302;4.634;2023-02-20T11:10:36;13.40;;;6.20;;
56653;SDS011;45096;52.302;4.634;2023-02-20T11:13:01;15.93;;;6.53;;
56653;SDS011;45096;52.302;4.634;2023-02-20T11:15:27;12.43;;;5.38;;
56653;SDS011;45096;52.302;4.634;2023-02-20T11:17:55;14.20;;;6.00;;
56653;SDS011;45096;52.302;4.634;2023-02-20T11:20:38;14.02;;;6.00;;
56653;SDS011;45096;52.302;4.634;2023-02-20T11:23:07;11.75;;;5.93;;
56653;SDS011;45096;52.302;4.634;2023-02-20T11:25:33;17.25;;;5.95;;
56653;SDS011;45096;52.302;4.634;2023-02-20T11:28:06;10.07;;;5.53;;
56653;SDS011;45096;52.302;4.634;2023-02-20T11:30:33;10.35;;;5.47;;
56653;SDS011;45096;52.302;4.634;2023-02-20T11:33:00;15.43;;;6.15;;
56653;SDS011;45096;52.302;4.634;2023-02-20T11:35:27;10.70;;;5.05;;
56653;SDS011;45096;52.302;4.634;2023-02-20T11:41:06;10.73;;;5.10;;
56653;SDS011;45096;52.302;4.634;2023-02-20T11:43:36;11.32;;;4.93;;
56653;SDS011;45096;52.302;4.634;2023-02-20T11:46:06;14.60;;;5.30;;
56653;SDS011;45096;52.302;4.634;2023-02-20T11:48:34;10.10;;;4.78;;
56653;SDS011;45096;52.302;4.634;2023-02-20T11:50:59;15.63;;;5.45;;
56653;SDS011;45096;52.302;4.634;2023-02-20T11:53:25;10.60;;;4.68;;
56653;SDS011;45096;52.302;4.634;2023-02-20T11:56:06;12.13;;;4.60;;
56653;SDS011;45096;52.302;4.634;2023-02-20T11:58:34;12.18;;;5.45;;
56653;SDS011;45096;52.302;4.634;2023-02-20T12:00:59;11.15;;;5.18;;
56653;SDS011;45096;52.302;4.634;2023-02-20T12:03:25;12.85;;;4.25;;
56653;SDS011;45096;52.302;4.634;2023-02-20T12:05:52;14.88;;;5.40;;
56653;SDS011;45096;52.302;4.634;2023-02-20T12:08:35;9.00;;;5.30;;
56653;SDS011;45096;52.302;4.634;2023-02-20T12:11:09;9.95;;;5.78;;
56653;SDS011;45096;52.302;4.634;2023-02-20T12:13:37;16.73;;;5.32;;
56653;SDS011;45096;52.302;4.634;2023-02-20T12:16:07;10.18;;;4.90;;
56653;SDS011;45096;52.302;4.634;2023-02-20T12:18:44;15.13;;;4.63;;
56653;SDS011;45096;52.302;4.634;2023-02-20T12:21:19;16.65;;;4.80;;
56653;SDS011;45096;52.302;4.634;2023-02-20T12:23:51;11.57;;;4.47;;
56653;SDS011;45096;52.302;4.634;2023-02-20T12:26:31;10.18;;;4.68;;
56653;SDS011;45096;52.302;4.634;2023-02-20T12:29:04;11.30;;;4.88;;
56653;SDS011;45096;52.302;4.634;2023-02-20T12:31:38;15.32;;;5.25;;
56653;SDS011;45096;52.302;4.634;2023-02-20T12:34:17;9.30;;;4.05;;
56653;SDS011;45096;52.302;4.634;2023-02-20T12:36:56;13.18;;;5.35;;
56653;SDS011;45096;52.302;4.634;2023-02-20T12:39:26;13.48;;;5.18;;
56653;SDS011;45096;52.302;4.634;2023-02-20T12:42:02;12.88;;;4.65;;
56653;SDS011;45096;52.302;4.634;2023-02-20T12:44:35;11.20;;;4.53;;
56653;SDS011;45096;52.302;4.634;2023-02-20T12:47:12;8.32;;;3.90;;
56653;SDS011;45096;52.302;4.634;2023-02-20T12:49:44;12.75;;;5.00;;
56653;SDS011;45096;52.302;4.634;2023-02-20T12:52:25;9.63;;;4.55;;
56653;SDS011;45096;52.302;4.634;2023-02-20T12:54:58;8.07;;;4.25;;
56653;SDS011;45096;52.302;4.634;2023-02-20T12:57:27;7.90;;;4.78;;
56653;SDS011;45096;52.302;4.634;2023-02-20T13:00:00;8.50;;;4.03;;
56653;SDS011;45096;52.302;4.634;2023-02-20T13:02:28;8.43;;;4.20;;
56653;SDS011;45096;52.302;4.634;2023-02-20T13:04:57;11.05;;;4.13;;
56653;SDS011;45096;52.302;4.634;2023-02-20T13:07:25;15.15;;;4.05;;
56653;SDS011;45096;52.302;4.634;2023-02-20T13:09:56;10.38;;;4.38;;
56653;SDS011;45096;52.302;4.634;2023-02-20T13:12:27;8.18;;;4.25;;
56653;SDS011;45096;52.302;4.634;2023-02-20T13:14:54;13.60;;;4.47;;
56653;SDS011;45096;52.302;4.634;2023-02-20T13:17:29;11.52;;;3.80;;
56653;SDS011;45096;52.302;4.634;2023-02-20T13:20:02;7.53;;;3.83;;
56653;SDS011;45096;52.302;4.634;2023-02-20T13:22:34;11.23;;;4.80;;
56653;SDS011;45096;52.302;4.634;2023-02-20T13:27:59;10.93;;;4.65;;
56653;SDS011;45096;52.302;4.634;2023-02-20T13:30:25;10.50;;;4.60;;
56653;SDS011;45096;52.302;4.634;2023-02-20T13:33:11;12.20;;;4.45;;
56653;SDS011;45096;52.302;4.634;2023-02-20T13:35:43;13.18;;;4.93;;
56653;SDS011;45096;52.302;4.634;2023-02-20T13:38:13;9.70;;;4.63;;
56653;SDS011;45096;52.302;4.634;2023-02-20T13:40:40;10.55;;;4.40;;
56653;SDS011;45096;52.302;4.634;2023-02-20T13:43:28;10.85;;;4.63;;
56653;SDS011;45096;52.302;4.634;2023-02-20T13:48:39;10.00;;;3.58;;
56653;SDS011;45096;52.302;4.634;2023-02-20T13:54:09;9.48;;;4.53;;
56653;SDS011;45096;52.302;4.634;2023-02-20T13:56:44;11.70;;;5.15;;
56653;SDS011;45096;52.302;4.634;2023-02-20T13:59:14;9.13;;;5.00;;
56653;SDS011;45096;52.302;4.634;2023-02-20T14:04:32;7.63;;;4.32;;
56653;SDS011;45096;52.302;4.634;2023-02-20T14:06:58;7.65;;;3.90;;
56653;SDS011;45096;52.302;4.634;2023-02-20T14:09:24;8.80;;;4.80;;
56653;SDS011;45096;52.302;4.634;2023-02-20T14:11:50;9.57;;;4.85;;
56653;SDS011;45096;52.302;4.634;2023-02-20T14:14:25;10.85;;;4.35;;
56653;SDS011;45096;52.302;4.634;2023-02-20T14:17:00;9.75;;;4.90;;
56653;SDS011;45096;52.302;4.634;2023-02-20T14:19:27;8.55;;;4.22;;
56653;SDS011;45096;52.302;4.634;2023-02-20T14:21:53;8.23;;;4.38;;
56653;SDS011;45096;52.302;4.634;2023-02-20T14:24:19;12.73;;;4.43;;
56653;SDS011;45096;52.302;4.634;2023-02-20T14:26:46;9.45;;;5.43;;
56653;SDS011;45096;52.302;4.634;2023-02-20T14:29:19;7.65;;;4.32;;
56653;SDS011;45096;52.302;4.634;2023-02-20T14:31:47;9.45;;;4.63;;
56653;SDS011;45096;52.302;4.634;2023-02-20T14:34:15;7.85;;;4.45;;
56653;SDS011;45096;52.302;4.634;2023-02-20T14:36:58;8.45;;;4.63;;
56653;SDS011;45096;52.302;4.634;2023-02-20T14:39:37;10.70;;;5.28;;
56653;SDS011;45096;52.302;4.634;2023-02-20T14:42:11;9.90;;;4.90;;
56653;SDS011;45096;52.302;4.634;2023-02-20T14:44:38;6.57;;;3.80;;
56653;SDS011;45096;52.302;4.634;2023-02-20T14:47:07;8.13;;;4.13;;
56653;SDS011;45096;52.302;4.634;2023-02-20T14:49:36;10.88;;;4.18;;
56653;SDS011;45096;52.302;4.634;2023-02-20T14:52:15;12.77;;;5.00;;
56653;SDS011;45096;52.302;4.634;2023-02-20T14:54:43;13.57;;;7.00;;
56653;SDS011;45096;52.302;4.634;2023-02-20T14:57:13;9.23;;;6.72;;
56653;SDS011;45096;52.302;4.634;2023-02-20T14:59:39;13.50;;;6.32;;